Time;durP1;ratioP1;P1;durP2;ratioP2;P2;SDS_P1;SDS_P2;PMS_P1;PMS_P2;Temp;Humidity;BMP_temperature;BMP_pressure;BME280_temperature;BME280_humidity;BME280_pressure;Samples;Min_cycle;Max_cycle;Signal;HPM_P1;HPM_P2
2022/01/10 00:02:23;;;;;;;28.88;6.88;;;4.00;99.90;;;;;;5034413;28;20510;-72
2022/01/10 00:04:48;;;;;;;30.55;7.20;;;4.00;99.90;;;;;;5034416;28;20029;-73
2022/01/10 00:07:14;;;;;;;29.38;7.30;;;3.90;99.90;;;;;;5034246;28;20021;-72
2022/01/10 00:09:39;;;;;;;27.75;7.05;;;4.00;99.90;;;;;;5034558;28;20487;-73
2022/01/10 00:12:06;;;;;;;29.80;7.03;;;4.00;99.90;;;;;;5034072;28;20049;-73
2022/01/10 00:14:31;;;;;;;29.13;8.38;;;3.90;99.90;;;;;;5034041;28;20391;-72
2022/01/10 00:16:57;;;;;;;27.30;7.50;;;4.00;99.90;;;;;;5034224;28;20021;-73
2022/01/10 00:19:22;;;;;;;23.73;7.00;;;4.00;99.90;;;;;;5034356;28;20470;-72
2022/01/10 00:21:48;;;;;;;21.33;7.25;;;4.00;99.90;;;;;;5034127;28;20057;-72
2022/01/10 00:24:14;;;;;;;22.15;6.60;;;4.00;99.90;;;;;;5034164;28;20017;-73
2022/01/10 00:26:39;;;;;;;23.00;6.90;;;4.00;99.90;;;;;;5034469;28;20509;-73
2022/01/10 00:29:05;;;;;;;25.70;7.25;;;4.00;99.90;;;;;;5034554;28;20040;-72
2022/01/10 00:31:31;;;;;;;22.75;6.85;;;4.00;99.90;;;;;;5033866;28;20025;-72
2022/01/10 00:33:56;;;;;;;24.77;7.43;;;4.00;99.90;;;;;;5032721;28;20394;-73
2022/01/10 00:36:22;;;;;;;25.20;7.35;;;3.90;99.90;;;;;;5034181;28;20056;-72
2022/01/10 00:38:47;;;;;;;23.52;7.35;;;3.90;99.90;;;;;;5033858;28;20113;-72
2022/01/10 00:41:13;;;;;;;25.80;7.32;;;3.90;99.90;;;;;;5033895;28;20033;-72
2022/01/10 00:43:45;;;;;;;24.08;6.55;;;3.90;99.90;;;;;;5033688;28;20025;-72
2022/01/10 00:46:11;;;;;;;28.70;6.90;;;3.80;99.90;;;;;;5034189;28;20033;-73
2022/01/10 00:48:36;;;;;;;26.63;7.40;;;3.80;99.90;;;;;;5033701;28;20026;-72
2022/01/10 00:51:02;;;;;;;18.80;6.40;;;3.80;99.90;;;;;;5033712;28;20022;-72
2022/01/10 00:53:27;;;;;;;32.08;7.47;;;3.80;99.90;;;;;;5033516;28;20037;-72
2022/01/10 00:55:53;;;;;;;31.40;7.60;;;3.80;99.90;;;;;;5033779;28;20018;-72
2022/01/10 00:58:19;;;;;;;24.08;7.90;;;3.80;99.90;;;;;;5033816;28;20018;-73
2022/01/10 01:00:45;;;;;;;25.92;7.95;;;3.90;99.90;;;;;;5033674;28;20499;-73
2022/01/10 01:03:10;;;;;;;21.27;8.05;;;3.90;99.90;;;;;;5033648;28;20478;-72
2022/01/10 01:05:40;;;;;;;30.13;8.55;;;3.90;99.90;;;;;;5033117;28;20025;-73
2022/01/10 01:08:08;;;;;;;28.73;8.13;;;4.00;99.90;;;;;;5033749;28;20116;-72
2022/01/10 01:15:45;;;;;;;31.70;8.85;;;4.10;99.90;;;;;;5033396;28;20034;-72
2022/01/10 01:18:18;;;;;;;35.15;8.45;;;4.00;99.90;;;;;;5033470;28;20387;-73
2022/01/10 01:23:59;;;;;;;28.80;7.97;;;4.10;99.90;;;;;;5033165;28;20494;-72
2022/01/10 01:26:15;;;;;;;29.30;8.40;;;4.10;99.90;;;;;;5034556;28;20570;-72
2022/01/10 01:28:41;;;;;;;33.05;9.15;;;4.10;99.90;;;;;;5033429;28;20112;-72
2022/01/10 01:31:06;;;;;;;25.33;8.90;;;4.10;99.90;;;;;;5033172;28;20061;-72
2022/01/10 01:33:32;;;;;;;25.75;8.95;;;4.20;99.90;;;;;;5033083;28;20032;-72
2022/01/10 01:35:57;;;;;;;25.48;9.18;;;4.10;99.90;;;;;;5032910;28;20017;-72
2022/01/10 01:38:24;;;;;;;32.92;10.18;;;4.20;99.90;;;;;;5033360;28;20025;-72
2022/01/10 01:40:58;;;;;;;32.70;10.00;;;4.10;99.90;;;;;;5032900;28;20045;-72
2022/01/10 01:43:23;;;;;;;38.43;10.67;;;4.20;99.90;;;;;;5033103;28;20108;-72
2022/01/10 01:45:50;;;;;;;29.10;10.43;;;4.10;99.90;;;;;;5033070;28;20052;-72
2022/01/10 01:48:16;;;;;;;34.05;11.30;;;4.10;99.90;;;;;;5032725;28;20021;-73
2022/01/10 01:50:42;;;;;;;30.20;11.40;;;4.10;99.90;;;;;;5032050;28;20022;-72
2022/01/10 01:53:09;;;;;;;30.27;10.05;;;4.10;99.90;;;;;;5015571;28;20033;-72
2022/01/10 01:55:35;;;;;;;27.75;11.25;;;4.10;99.90;;;;;;5012488;28;20033;-72
2022/01/10 01:58:01;;;;;;;28.48;10.75;;;4.10;99.90;;;;;;5012767;28;20464;-72
2022/01/10 02:00:27;;;;;;;34.92;11.13;;;4.10;99.90;;;;;;5012310;28;20026;-73
2022/01/10 02:02:55;;;;;;;29.58;11.27;;;4.10;99.90;;;;;;5012747;28;20586;-72
2022/01/10 02:05:20;;;;;;;31.83;11.13;;;4.10;99.90;;;;;;5012695;28;20037;-72
2022/01/10 02:07:46;;;;;;;40.55;11.98;;;4.10;99.90;;;;;;5024415;28;20034;-72
2022/01/10 02:10:12;;;;;;;34.08;12.93;;;4.00;99.90;;;;;;5032201;28;20471;-73
2022/01/10 02:12:38;;;;;;;26.48;11.88;;;4.00;99.90;;;;;;5031934;28;20022;-72
2022/01/10 02:15:04;;;;;;;30.50;12.52;;;4.00;99.90;;;;;;5032109;28;20026;-73
2022/01/10 02:17:38;;;;;;;34.08;13.25;;;4.00;99.90;;;;;;5032059;28;20079;-72
2022/01/10 02:20:07;;;;;;;33.30;12.55;;;4.00;99.90;;;;;;5032094;28;20053;-73
2022/01/10 02:22:32;;;;;;;32.55;13.45;;;4.00;99.90;;;;;;5033001;28;20049;-72
2022/01/10 02:24:58;;;;;;;28.38;13.10;;;4.00;99.90;;;;;;5032225;28;20064;-72
2022/01/10 02:27:25;;;;;;;35.30;13.48;;;4.00;99.90;;;;;;5032401;28;20113;-72
2022/01/10 02:29:51;;;;;;;35.03;13.38;;;4.00;99.90;;;;;;5031939;28;20033;-72
2022/01/10 02:32:19;;;;;;;35.17;13.57;;;4.00;99.90;;;;;;5031610;28;20497;-72
2022/01/10 02:34:44;;;;;;;30.48;12.80;;;4.00;99.90;;;;;;5031892;28;20458;-72
2022/01/10 02:37:10;;;;;;;39.85;14.75;;;4.00;99.90;;;;;;5032049;28;20050;-72
2022/01/10 02:39:36;;;;;;;45.38;15.10;;;4.00;99.90;;;;;;5032044;28;20028;-72
2022/01/10 02:42:03;;;;;;;35.53;13.45;;;4.00;99.90;;;;;;5031812;28;20093;-72
2022/01/10 02:44:29;;;;;;;41.88;14.30;;;4.00;99.90;;;;;;5021002;28;20025;-72
2022/01/10 02:46:56;;;;;;;34.70;14.73;;;4.10;99.90;;;;;;5011630;28;20094;-72
2022/01/10 02:49:27;;;;;;;40.88;14.57;;;4.10;99.90;;;;;;5011836;28;20030;-72
2022/01/10 02:51:57;;;;;;;35.50;15.32;;;4.10;99.90;;;;;;5011771;28;20030;-72
2022/01/10 02:54:24;;;;;;;34.00;14.57;;;4.10;99.90;;;;;;5011797;28;20030;-72
2022/01/10 02:56:52;;;;;;;34.38;14.73;;;4.10;99.90;;;;;;5011462;28;20034;-72
2022/01/10 02:59:18;;;;;;;35.92;14.77;;;4.10;99.90;;;;;;5011729;28;20022;-72
2022/01/10 03:01:45;;;;;;;33.45;15.10;;;4.10;99.90;;;;;;5011611;28;20026;-73
2022/01/10 03:04:12;;;;;;;34.00;15.13;;;4.10;99.90;;;;;;5010196;28;20022;-72
2022/01/10 03:06:38;;;;;;;36.65;15.20;;;4.20;99.90;;;;;;5011275;28;20037;-72
2022/01/10 03:09:06;;;;;;;35.72;14.82;;;4.10;99.90;;;;;;5011582;28;20357;-72
2022/01/10 03:11:33;;;;;;;32.60;14.27;;;4.20;99.90;;;;;;5011469;28;20037;-73
2022/01/10 03:13:59;;;;;;;36.42;15.18;;;4.20;99.90;;;;;;5011159;28;20506;-72
2022/01/10 03:16:25;;;;;;;32.15;14.80;;;4.20;99.90;;;;;;5011116;28;20037;-72
2022/01/10 03:18:51;;;;;;;30.05;14.38;;;4.20;99.90;;;;;;5011251;28;20026;-72
2022/01/10 03:21:19;;;;;;;34.38;14.07;;;4.20;99.90;;;;;;5011017;28;20503;-72
2022/01/10 03:23:50;;;;;;;33.55;14.27;;;4.20;99.90;;;;;;5011284;28;20022;-72
2022/01/10 03:26:17;;;;;;;38.00;14.55;;;4.20;99.90;;;;;;5011282;28;20105;-73
2022/01/10 03:28:42;;;;;;;35.42;14.63;;;4.20;99.90;;;;;;5011148;28;20045;-72
2022/01/10 03:31:08;;;;;;;29.55;13.95;;;4.20;99.90;;;;;;5011044;28;20071;-72
2022/01/10 03:33:34;;;;;;;37.00;14.52;;;4.20;99.90;;;;;;5011066;28;20120;-72
2022/01/10 03:35:59;;;;;;;37.17;14.85;;;4.20;99.90;;;;;;5010479;28;20721;-72
2022/01/10 03:38:25;;;;;;;32.25;14.45;;;4.30;99.90;;;;;;5010947;28;20022;-72
2022/01/10 03:40:51;;;;;;;34.45;14.30;;;4.30;99.90;;;;;;5010831;28;20026;-72
2022/01/10 03:43:16;;;;;;;34.00;15.25;;;4.30;99.90;;;;;;5010897;28;20040;-72
2022/01/10 03:45:43;;;;;;;35.45;14.32;;;4.30;99.90;;;;;;5011091;28;20022;-72
2022/01/10 03:48:09;;;;;;;29.90;14.73;;;4.30;99.90;;;;;;5011014;28;20025;-73
2022/01/10 03:50:35;;;;;;;30.88;15.05;;;4.30;99.90;;;;;;5010944;28;20467;-72
2022/01/10 03:53:01;;;;;;;32.75;14.32;;;4.30;99.90;;;;;;5010588;28;20022;-72
2022/01/10 03:55:27;;;;;;;35.70;15.18;;;4.30;99.90;;;;;;5010602;28;20109;-72
2022/01/10 03:57:52;;;;;;;38.40;16.30;;;4.30;99.90;;;;;;5010833;28;20109;-72
2022/01/10 04:00:18;;;;;;;34.03;16.33;;;4.40;99.90;;;;;;5010735;28;20042;-72
2022/01/10 04:02:51;;;;;;;31.85;15.90;;;4.40;99.90;;;;;;5011151;28;20121;-73
2022/01/10 04:05:17;;;;;;;30.98;16.75;;;4.40;99.90;;;;;;5010979;28;20037;-73
2022/01/10 04:07:42;;;;;;;37.53;17.23;;;4.40;99.90;;;;;;5010700;28;20026;-73
2022/01/10 04:10:08;;;;;;;33.58;16.63;;;4.40;99.90;;;;;;5010529;28;20145;-73
2022/01/10 04:12:34;;;;;;;38.63;17.77;;;4.40;99.90;;;;;;5010851;28;20368;-72
2022/01/10 04:15:00;;;;;;;37.15;15.88;;;4.40;99.90;;;;;;5010544;28;20030;-73
2022/01/10 04:17:25;;;;;;;39.25;17.27;;;4.40;99.90;;;;;;5010593;28;20503;-73
2022/01/10 04:19:51;;;;;;;35.70;17.30;;;4.40;99.90;;;;;;5010709;28;20048;-73
2022/01/10 04:22:16;;;;;;;36.05;17.17;;;4.50;99.90;;;;;;5010929;28;20038;-72
2022/01/10 04:24:42;;;;;;;34.17;17.45;;;4.40;99.90;;;;;;5010360;28;20041;-73
2022/01/10 04:27:08;;;;;;;40.40;17.42;;;4.40;99.90;;;;;;5009613;28;20029;-72
2022/01/10 04:29:33;;;;;;;34.55;17.80;;;4.50;99.90;;;;;;5010824;28;20073;-73
2022/01/10 04:32:00;;;;;;;35.20;18.10;;;4.50;99.90;;;;;;5010250;28;20073;-73
2022/01/10 04:34:26;;;;;;;34.33;17.75;;;4.50;99.90;;;;;;5009005;28;20191;-72
2022/01/10 04:36:52;;;;;;;40.42;18.67;;;4.50;99.90;;;;;;5010590;28;20026;-72
2022/01/10 04:39:17;;;;;;;36.65;18.75;;;4.50;99.90;;;;;;5010392;28;20025;-72
2022/01/10 04:41:43;;;;;;;36.75;18.38;;;4.50;99.90;;;;;;5010396;28;20034;-73
2022/01/10 04:44:09;;;;;;;38.40;17.55;;;4.50;99.90;;;;;;5010247;28;20083;-72
2022/01/10 04:46:34;;;;;;;40.17;19.75;;;4.50;99.90;;;;;;5014397;28;20045;-73
2022/01/10 04:49:02;;;;;;;39.03;17.88;;;4.50;99.90;;;;;;5033499;28;20498;-72
2022/01/10 04:51:29;;;;;;;37.95;17.85;;;4.50;99.90;;;;;;5033677;28;20018;-73
2022/01/10 04:53:55;;;;;;;38.00;17.67;;;4.50;99.90;;;;;;5033165;28;20487;-72
2022/01/10 04:56:21;;;;;;;35.08;17.38;;;4.50;99.90;;;;;;5033531;28;20022;-72
2022/01/10 04:58:48;;;;;;;36.20;17.80;;;4.50;99.90;;;;;;5033365;28;20426;-73
2022/01/10 05:01:15;;;;;;;33.35;17.23;;;4.50;99.90;;;;;;5025222;28;20463;-73
2022/01/10 05:03:41;;;;;;;34.97;17.10;;;4.50;99.90;;;;;;5026712;28;20044;-72
2022/01/10 05:06:07;;;;;;;35.55;17.65;;;4.50;99.90;;;;;;5020504;28;20030;-72
2022/01/10 05:08:33;;;;;;;41.03;18.10;;;4.50;99.90;;;;;;5034327;28;20026;-73
2022/01/10 05:10:58;;;;;;;36.75;17.15;;;4.50;99.90;;;;;;5023951;28;20025;-72
2022/01/10 05:13:24;;;;;;;36.50;16.88;;;4.50;99.90;;;;;;5018325;28;20508;-73
2022/01/10 05:15:52;;;;;;;35.72;16.42;;;4.50;99.90;;;;;;5025208;28;20395;-73
2022/01/10 05:18:19;;;;;;;36.95;16.55;;;4.50;99.90;;;;;;5028057;28;20033;-73
2022/01/10 05:20:45;;;;;;;32.22;17.15;;;4.50;99.90;;;;;;5031854;28;20112;-73
2022/01/10 05:23:10;;;;;;;33.63;16.85;;;4.50;99.90;;;;;;5032864;28;20160;-73
2022/01/10 05:25:39;;;;;;;39.60;16.77;;;4.50;99.90;;;;;;5032749;28;20033;-73
2022/01/10 05:28:09;;;;;;;36.63;16.85;;;4.50;99.90;;;;;;5033068;28;20040;-73
2022/01/10 05:30:36;;;;;;;39.20;16.55;;;4.40;99.90;;;;;;5021486;28;20030;-71
2022/01/10 05:33:01;;;;;;;30.75;16.67;;;4.40;99.90;;;;;;5025755;28;20055;-71
2022/01/10 05:35:27;;;;;;;35.92;15.95;;;4.40;99.90;;;;;;5015555;28;20034;-70
2022/01/10 05:37:52;;;;;;;34.25;17.13;;;4.50;99.90;;;;;;5012808;28;20102;-70
2022/01/10 05:40:19;;;;;;;38.47;17.65;;;4.40;99.90;;;;;;5012601;28;20057;-71
2022/01/10 05:42:45;;;;;;;31.33;17.02;;;4.40;99.90;;;;;;5025259;28;20097;-70
2022/01/10 05:45:11;;;;;;;37.42;17.58;;;4.40;99.90;;;;;;5042765;28;20075;-71
2022/01/10 05:47:41;;;;;;;36.55;17.08;;;4.40;99.90;;;;;;5037515;28;20021;-71
2022/01/10 05:50:08;;;;;;;37.28;18.05;;;4.50;99.90;;;;;;5035815;28;20533;-70
2022/01/10 05:52:34;;;;;;;42.60;17.45;;;4.40;99.90;;;;;;5036213;28;20036;-70
2022/01/10 05:54:59;;;;;;;39.33;17.65;;;4.40;99.90;;;;;;5047592;28;20029;-70
2022/01/10 05:57:25;;;;;;;32.75;17.92;;;4.50;99.90;;;;;;5032965;28;20128;-70
2022/01/10 05:59:51;;;;;;;39.35;17.00;;;4.50;99.90;;;;;;5026760;28;20448;-70
2022/01/10 06:02:16;;;;;;;37.78;18.30;;;4.50;99.90;;;;;;5017833;28;20334;-70
2022/01/10 06:04:42;;;;;;;34.42;15.73;;;4.50;99.90;;;;;;5031931;28;20489;-71
2022/01/10 06:07:08;;;;;;;36.30;17.92;;;4.50;99.90;;;;;;5013307;28;20032;-70
2022/01/10 06:09:34;;;;;;;42.88;19.13;;;4.50;99.90;;;;;;5037068;28;20029;-70
2022/01/10 06:11:59;;;;;;;32.85;16.58;;;4.50;99.90;;;;;;5036444;28;20064;-71
2022/01/10 06:14:25;;;;;;;32.15;17.02;;;4.50;99.90;;;;;;5015330;28;20026;-71
2022/01/10 06:16:51;;;;;;;33.03;16.52;;;4.50;99.90;;;;;;5016291;28;20034;-71
2022/01/10 06:19:16;;;;;;;36.17;17.13;;;4.50;99.90;;;;;;5017777;28;20112;-72
2022/01/10 06:21:42;;;;;;;32.20;16.52;;;4.50;99.90;;;;;;5031527;28;20192;-72
2022/01/10 06:24:07;;;;;;;34.67;17.38;;;4.50;99.90;;;;;;5031543;28;20029;-71
2022/01/10 06:26:33;;;;;;;37.35;17.73;;;4.50;99.90;;;;;;5021587;28;20055;-71
2022/01/10 06:28:59;;;;;;;39.30;18.25;;;4.50;99.90;;;;;;5019349;28;20041;-71
2022/01/10 06:31:24;;;;;;;32.28;16.52;;;4.50;99.90;;;;;;5032149;28;20036;-71
2022/01/10 06:33:50;;;;;;;39.17;18.05;;;4.50;99.90;;;;;;5041966;28;20022;-72
2022/01/10 06:36:16;;;;;;;34.30;18.02;;;4.60;99.90;;;;;;5030979;28;20386;-72
2022/01/10 06:38:41;;;;;;;36.13;17.35;;;4.60;99.90;;;;;;5032397;28;20026;-72
2022/01/10 06:41:07;;;;;;;34.65;17.65;;;4.60;99.90;;;;;;5012773;28;20119;-72
2022/01/10 06:43:33;;;;;;;29.42;16.85;;;4.60;99.90;;;;;;5015201;28;20021;-72
2022/01/10 06:45:58;;;;;;;32.17;18.30;;;4.60;99.90;;;;;;5035389;28;20048;-72
2022/01/10 06:48:24;;;;;;;37.30;17.40;;;4.60;99.90;;;;;;5040622;28;20029;-72
2022/01/10 06:50:50;;;;;;;32.40;18.42;;;4.60;99.90;;;;;;5024482;28;20026;-72
2022/01/10 06:53:17;;;;;;;37.83;18.95;;;4.60;99.90;;;;;;5028642;28;20684;-72
2022/01/10 06:55:43;;;;;;;40.78;18.88;;;4.60;99.90;;;;;;5029804;28;20038;-72
2022/01/10 06:58:09;;;;;;;35.13;17.67;;;4.60;99.90;;;;;;5015653;28;20117;-72
2022/01/10 07:00:36;;;;;;;35.53;18.38;;;4.60;99.90;;;;;;5030746;28;20022;-72
2022/01/10 07:03:02;;;;;;;42.05;19.70;;;4.60;99.90;;;;;;5024972;28;20084;-72
2022/01/10 07:05:28;;;;;;;40.78;19.63;;;4.60;99.90;;;;;;5013592;28;20029;-72
2022/01/10 07:07:54;;;;;;;40.75;20.13;;;4.60;99.90;;;;;;5036964;28;20470;-72
2022/01/10 07:10:20;;;;;;;42.80;21.13;;;4.60;99.90;;;;;;5029784;28;20025;-72
2022/01/10 07:12:46;;;;;;;39.35;21.20;;;4.60;99.90;;;;;;5028637;28;20508;-72
2022/01/10 07:15:11;;;;;;;37.65;21.38;;;4.60;99.90;;;;;;5033655;28;20505;-72
2022/01/10 07:17:37;;;;;;;40.95;21.08;;;4.60;99.90;;;;;;5016698;28;20049;-72
2022/01/10 07:20:03;;;;;;;44.85;23.17;;;4.60;99.90;;;;;;5022402;28;20131;-73
2022/01/10 07:22:29;;;;;;;46.05;23.38;;;4.60;99.90;;;;;;5026926;28;20038;-72
2022/01/10 07:24:54;;;;;;;45.00;23.27;;;4.70;99.90;;;;;;5028198;28;20033;-72
2022/01/10 07:27:20;;;;;;;47.58;25.50;;;4.70;99.90;;;;;;5030459;28;20029;-72
2022/01/10 07:29:49;;;;;;;49.65;25.77;;;4.70;99.90;;;;;;5023246;28;20030;-72
2022/01/10 07:32:15;;;;;;;47.10;24.52;;;4.70;99.90;;;;;;5030471;28;20041;-72
2022/01/10 07:34:41;;;;;;;47.95;25.58;;;4.70;99.90;;;;;;5030794;28;20519;-71
2022/01/10 07:37:06;;;;;;;50.58;25.98;;;4.70;99.90;;;;;;5030890;28;20117;-72
2022/01/10 07:39:32;;;;;;;53.03;26.63;;;4.70;99.90;;;;;;5023941;28;20302;-72
2022/01/10 07:41:58;;;;;;;52.30;26.20;;;4.70;99.90;;;;;;5034064;28;20037;-72
2022/01/10 07:44:24;;;;;;;47.00;26.73;;;4.80;99.90;;;;;;5032265;28;20072;-74
2022/01/10 07:46:49;;;;;;;45.45;26.23;;;4.70;99.90;;;;;;5033620;28;20072;-73
2022/01/10 07:49:15;;;;;;;55.08;27.73;;;4.70;99.90;;;;;;5031295;28;20025;-73
2022/01/10 07:51:40;;;;;;;51.72;26.38;;;4.70;99.90;;;;;;5041303;28;20037;-73
2022/01/10 07:54:06;;;;;;;63.67;28.20;;;4.80;99.90;;;;;;5036231;28;20532;-74
2022/01/10 07:56:32;;;;;;;55.65;28.42;;;4.80;99.90;;;;;;5036521;28;20608;-74
2022/01/10 07:58:57;;;;;;;58.78;29.00;;;4.80;99.90;;;;;;5038040;28;20033;-74
2022/01/10 08:01:23;;;;;;;58.30;29.38;;;4.80;99.90;;;;;;5034843;28;20097;-73
2022/01/10 08:03:51;;;;;;;52.90;28.10;;;4.80;99.90;;;;;;5043367;28;20024;-74
2022/01/10 08:06:17;;;;;;;67.13;28.83;;;4.80;99.90;;;;;;5032401;28;20509;-74
2022/01/10 08:08:43;;;;;;;55.08;28.83;;;4.80;99.90;;;;;;5032411;28;20076;-73
2022/01/10 08:11:08;;;;;;;57.70;28.65;;;4.80;99.90;;;;;;5036631;28;20053;-74
2022/01/10 08:13:34;;;;;;;57.88;28.70;;;4.80;99.90;;;;;;5037776;28;20021;-74
2022/01/10 08:16:00;;;;;;;56.70;27.38;;;4.90;99.90;;;;;;5032702;28;20025;-74
2022/01/10 08:18:26;;;;;;;60.22;28.45;;;4.90;99.90;;;;;;5035435;28;20505;-74
2022/01/10 08:20:52;;;;;;;60.42;29.45;;;4.90;99.90;;;;;;5030097;28;20098;-73
2022/01/10 08:23:17;;;;;;;57.22;27.25;;;4.90;99.90;;;;;;5033729;28;20041;-74
2022/01/10 08:25:43;;;;;;;66.20;29.33;;;4.90;99.90;;;;;;5042429;28;20021;-74
2022/01/10 08:28:09;;;;;;;55.47;27.15;;;4.90;99.90;;;;;;5037349;28;20041;-73
2022/01/10 08:30:35;;;;;;;53.47;28.00;;;4.90;99.90;;;;;;5037143;28;20021;-74
2022/01/10 08:33:01;;;;;;;50.70;28.40;;;5.00;99.90;;;;;;5026852;28;20021;-74
2022/01/10 08:35:26;;;;;;;57.08;28.00;;;5.00;99.90;;;;;;5040130;28;20030;-74
2022/01/10 08:37:52;;;;;;;52.22;27.88;;;5.00;99.90;;;;;;5034263;28;20033;-74
2022/01/10 08:40:18;;;;;;;54.33;27.85;;;5.00;99.90;;;;;;5040943;28;20087;-71
2022/01/10 08:42:43;;;;;;;53.83;28.17;;;5.00;99.90;;;;;;5050299;28;20048;-71
2022/01/10 08:45:09;;;;;;;50.53;27.98;;;5.10;99.90;;;;;;5044537;28;20033;-71
2022/01/10 08:47:36;;;;;;;50.22;27.92;;;5.10;99.90;;;;;;5021923;28;20032;-71
2022/01/10 08:50:04;;;;;;;53.45;28.25;;;5.10;99.90;;;;;;5042716;28;20032;-71
2022/01/10 08:52:29;;;;;;;54.78;27.67;;;5.10;99.90;;;;;;5038298;28;20442;-71
2022/01/10 08:54:55;;;;;;;54.17;29.17;;;5.10;99.90;;;;;;5039911;28;20131;-71
2022/01/10 08:57:20;;;;;;;56.22;29.92;;;5.10;99.90;;;;;;5040813;28;20378;-71
2022/01/10 08:59:46;;;;;;;50.88;27.70;;;5.20;99.90;;;;;;5031653;28;20045;-71
2022/01/10 09:02:12;;;;;;;50.92;27.50;;;5.20;99.90;;;;;;5045018;28;20496;-71
2022/01/10 09:04:39;;;;;;;53.67;28.05;;;5.20;99.90;;;;;;5033844;28;20470;-71
2022/01/10 09:07:08;;;;;;;55.25;28.98;;;5.20;99.90;;;;;;5025235;28;20090;-71
2022/01/10 09:09:34;;;;;;;59.20;28.33;;;5.20;99.90;;;;;;5031658;28;20056;-71
2022/01/10 09:11:59;;;;;;;55.95;27.92;;;5.30;99.90;;;;;;5043829;28;20037;-71
2022/01/10 09:14:25;;;;;;;49.10;27.70;;;5.30;99.90;;;;;;5041184;28;20029;-71
2022/01/10 09:16:51;;;;;;;59.28;27.65;;;5.30;99.90;;;;;;5045068;28;20114;-71
2022/01/10 09:19:16;;;;;;;55.88;28.85;;;5.30;99.90;;;;;;5027760;28;20018;-71
2022/01/10 09:21:42;;;;;;;48.75;27.10;;;5.30;99.90;;;;;;5041267;28;20043;-71
2022/01/10 09:24:08;;;;;;;58.13;28.58;;;5.30;99.90;;;;;;5028146;28;20437;-71
2022/01/10 09:26:33;;;;;;;55.15;27.02;;;5.40;99.90;;;;;;5036356;28;20017;-71
2022/01/10 09:28:59;;;;;;;49.58;26.65;;;5.40;99.90;;;;;;5040678;28;20057;-71
2022/01/10 09:31:25;;;;;;;49.90;26.77;;;5.40;99.90;;;;;;5043439;28;20033;-71
2022/01/10 09:33:55;;;;;;;52.35;27.67;;;5.50;99.90;;;;;;5031089;28;20506;-73
2022/01/10 09:36:27;;;;;;;50.20;26.33;;;5.50;99.90;;;;;;5027570;28;20025;-74
2022/01/10 09:38:55;;;;;;;50.22;26.48;;;5.50;99.90;;;;;;5031337;28;21050;-71
2022/01/10 09:41:22;;;;;;;64.32;27.60;;;5.50;99.90;;;;;;5045707;28;20013;-71
2022/01/10 09:43:56;;;;;;;52.25;26.42;;;5.60;99.90;;;;;;5042974;28;20537;-71
2022/01/10 09:46:23;;;;;;;49.10;25.33;;;5.60;99.90;;;;;;5032596;28;20100;-71
2022/01/10 09:48:49;;;;;;;47.53;25.35;;;5.70;99.90;;;;;;5036159;28;20034;-71
2022/01/10 09:51:15;;;;;;;53.75;28.52;;;5.70;99.90;;;;;;5039594;28;20033;-71
2022/01/10 09:53:41;;;;;;;63.88;31.27;;;5.70;99.90;;;;;;5031782;28;20524;-72
2022/01/10 09:56:06;;;;;;;46.22;24.15;;;5.70;99.90;;;;;;5031629;28;20033;-74
2022/01/10 09:58:32;;;;;;;48.30;23.42;;;5.80;99.90;;;;;;5020487;28;20071;-74
2022/01/10 10:01:00;;;;;;;48.20;24.70;;;5.80;99.90;;;;;;5028927;28;20125;-74
2022/01/10 10:03:26;;;;;;;45.45;23.85;;;5.80;99.90;;;;;;4997218;28;20056;-73
2022/01/10 10:05:56;;;;;;;46.13;25.08;;;5.90;99.90;;;;;;5035380;28;20033;-74
2022/01/10 10:08:24;;;;;;;48.80;24.42;;;5.90;99.90;;;;;;5039375;28;20080;-74
2022/01/10 10:10:51;;;;;;;45.10;24.30;;;5.90;99.90;;;;;;5039850;28;20026;-74
2022/01/10 10:13:18;;;;;;;47.78;24.92;;;5.90;99.90;;;;;;5040194;28;20032;-74
2022/01/10 10:15:46;;;;;;;42.17;23.77;;;6.00;99.90;;;;;;5033396;28;20104;-73
2022/01/10 10:18:12;;;;;;;48.00;23.92;;;6.00;99.90;;;;;;5037842;28;20025;-73
2022/01/10 10:20:41;;;;;;;47.28;25.05;;;6.00;99.90;;;;;;5042476;28;20521;-74
2022/01/10 10:23:07;;;;;;;46.47;24.05;;;6.10;99.90;;;;;;5047654;28;20033;-74
2022/01/10 10:25:33;;;;;;;45.33;22.05;;;6.10;99.90;;;;;;5031079;28;20106;-74
2022/01/10 10:28:00;;;;;;;41.70;22.67;;;6.10;99.90;;;;;;5029313;28;20021;-74
2022/01/10 10:30:29;;;;;;;47.05;22.13;;;6.20;99.90;;;;;;5030565;28;20020;-72
2022/01/10 10:33:13;;;;;;;43.95;22.35;;;6.20;99.90;;;;;;5041263;28;20029;-72
2022/01/10 10:35:39;;;;;;;45.20;22.17;;;6.20;99.90;;;;;;5035596;28;20072;-71
2022/01/10 10:38:05;;;;;;;40.60;21.63;;;6.20;99.90;;;;;;5036859;28;20394;-71
2022/01/10 10:40:37;;;;;;;46.75;22.02;;;6.20;99.90;;;;;;5043736;28;20056;-72
2022/01/10 10:43:06;;;;;;;46.30;21.52;;;6.30;99.90;;;;;;5039867;28;20454;-71
2022/01/10 10:45:31;;;;;;;46.90;20.80;;;6.30;99.90;;;;;;5035481;28;20017;-72
2022/01/10 10:47:59;;;;;;;43.72;20.73;;;6.30;99.90;;;;;;5034871;28;20425;-70
2022/01/10 10:50:28;;;;;;;39.83;19.60;;;6.30;99.90;;;;;;5031256;28;20473;-72
2022/01/10 10:52:54;;;;;;;45.13;20.40;;;6.30;99.90;;;;;;5036097;28;20421;-73
2022/01/10 10:55:19;;;;;;;39.60;19.52;;;6.30;99.90;;;;;;5042030;28;20108;-72
2022/01/10 10:57:48;;;;;;;41.55;19.25;;;6.30;99.90;;;;;;5042062;28;20105;-73
2022/01/10 11:00:15;;;;;;;39.97;18.67;;;6.40;99.90;;;;;;5041396;28;20053;-73
2022/01/10 11:02:44;;;;;;;35.17;18.42;;;6.40;99.90;;;;;;5034314;28;20025;-77
2022/01/10 11:05:09;;;;;;;36.10;18.58;;;6.40;99.90;;;;;;5032252;28;20049;-70
2022/01/10 11:07:36;;;;;;;38.65;18.63;;;6.40;99.90;;;;;;5032532;28;20076;-70
2022/01/10 11:10:04;;;;;;;42.53;19.80;;;6.40;99.90;;;;;;5029540;28;20074;-72
2022/01/10 11:12:31;;;;;;;40.47;19.25;;;6.50;99.90;;;;;;5028503;28;20141;-73
2022/01/10 11:14:59;;;;;;;41.88;19.05;;;6.50;99.90;;;;;;5011511;28;20065;-72
2022/01/10 11:17:25;;;;;;;40.65;18.15;;;6.50;99.90;;;;;;5011821;28;20022;-72
2022/01/10 11:20:28;;;;;;;36.05;18.63;;;6.60;99.90;;;;;;5019560;28;20029;-72
2022/01/10 11:22:58;;;;;;;40.92;18.17;;;6.60;99.90;;;;;;4930022;29;20597;-72
2022/01/10 11:25:28;;;;;;;43.38;17.50;;;6.60;99.90;;;;;;4917022;29;20149;-72
2022/01/10 11:28:00;;;;;;;39.38;17.65;;;6.60;99.90;;;;;;4916780;29;20028;-72
2022/01/10 11:30:44;;;;;;;36.72;16.85;;;6.60;99.90;;;;;;4924724;29;20036;-72
2022/01/10 11:33:16;;;;;;;32.92;17.08;;;6.70;99.90;;;;;;4920238;29;20159;-72
2022/01/10 11:35:55;;;;;;;35.45;17.40;;;6.70;99.90;;;;;;4924090;29;20402;-72
2022/01/10 11:38:38;;;;;;;38.67;17.08;;;6.80;99.90;;;;;;4928891;29;20043;-72
2022/01/10 11:41:09;;;;;;;38.95;18.33;;;6.80;99.90;;;;;;4921620;29;20257;-72
2022/01/10 11:43:43;;;;;;;37.40;17.05;;;6.80;99.90;;;;;;4917589;29;20048;-71
2022/01/10 11:46:20;;;;;;;38.10;17.38;;;6.90;99.90;;;;;;4921463;29;20437;-72
2022/01/10 11:48:58;;;;;;;35.45;17.63;;;6.90;99.90;;;;;;4916226;29;20040;-72
2022/01/10 11:51:34;;;;;;;43.13;18.02;;;6.90;99.90;;;;;;4920254;29;20032;-71
2022/01/10 11:54:14;;;;;;;33.15;16.70;;;7.00;99.90;;;;;;4913689;29;20132;-72
2022/01/10 11:56:51;;;;;;;39.90;16.50;;;7.00;99.90;;;;;;4966938;28;20038;-72
2022/01/10 11:59:33;;;;;;;42.08;17.85;;;7.00;99.90;;;;;;5033009;28;20059;-72
2022/01/10 12:02:10;;;;;;;36.05;16.70;;;7.00;99.90;;;;;;5032196;28;20041;-72
2022/01/10 12:04:53;;;;;;;39.08;17.50;;;7.10;99.90;;;;;;5035511;28;20113;-72
2022/01/10 12:07:24;;;;;;;45.70;20.45;;;7.10;99.90;;;;;;5040962;28;20369;-72
2022/01/10 12:09:51;;;;;;;39.60;18.55;;;7.10;99.90;;;;;;5052337;28;20032;-72
2022/01/10 12:12:19;;;;;;;37.38;17.90;;;7.10;99.90;;;;;;5045944;28;20036;-72
2022/01/10 12:14:46;;;;;;;38.95;16.77;;;7.20;99.90;;;;;;5040685;28;20040;-72
2022/01/10 12:17:13;;;;;;;40.83;16.55;;;7.10;99.90;;;;;;5030425;28;20052;-72
2022/01/10 12:19:40;;;;;;;37.83;15.55;;;7.20;99.90;;;;;;5034375;28;20022;-73
2022/01/10 12:22:07;;;;;;;38.45;15.95;;;7.20;99.90;;;;;;5043178;28;20039;-72
2022/01/10 12:24:35;;;;;;;32.10;15.15;;;7.20;99.90;;;;;;5053171;28;20426;-72
2022/01/10 12:27:02;;;;;;;38.65;15.77;;;7.20;99.90;;;;;;5039545;28;20017;-72
2022/01/10 12:29:29;;;;;;;40.03;16.58;;;7.20;99.90;;;;;;5052106;28;20088;-72
2022/01/10 12:31:56;;;;;;;42.22;16.25;;;7.20;99.90;;;;;;5030258;28;20124;-72
2022/01/10 12:34:21;;;;;;;38.58;15.10;;;7.20;99.90;;;;;;5037606;28;20017;-72
2022/01/10 12:36:47;;;;;;;32.83;14.68;;;7.20;99.90;;;;;;5043416;28;20071;-72
2022/01/10 12:39:22;;;;;;;37.00;15.73;;;7.20;99.90;;;;;;5050055;28;20020;-72
2022/01/10 12:41:49;;;;;;;28.50;15.82;;;7.20;99.90;;;;;;5049940;28;20348;-72
2022/01/10 12:44:15;;;;;;;39.67;15.98;;;7.20;99.90;;;;;;5051615;28;20636;-72
2022/01/10 12:46:41;;;;;;;33.80;15.13;;;7.20;99.90;;;;;;5036240;28;20389;-72